createdAt,value
2023-02-01T00:04:09.253Z,6.90
2023-02-01T00:09:19.027Z,7.30
2023-02-01T00:14:26.945Z,5.90
2023-02-01T00:19:35.668Z,4.80
2023-02-01T00:24:43.033Z,4.80
2023-02-01T00:29:51.483Z,3.50
2023-02-01T00:34:59.533Z,3.90
2023-02-01T00:40:07.903Z,3.30
2023-02-01T00:45:16.987Z,2.60
2023-02-01T00:50:25.352Z,2.50
2023-02-01T00:55:33.539Z,2.20
2023-02-01T01:00:42.266Z,2.70
2023-02-01T01:05:51.205Z,2.00
2023-02-01T01:10:59.692Z,1.90
2023-02-01T01:16:10.449Z,1.90
2023-02-01T01:21:20.052Z,1.70
2023-02-01T01:26:30.877Z,1.70
2023-02-01T01:31:39.581Z,2.10
2023-02-01T01:36:47.785Z,1.30
2023-02-01T01:41:55.407Z,1.60
2023-02-01T01:47:06.651Z,1.30
2023-02-01T01:52:15.423Z,1.40
2023-02-01T01:57:26.926Z,1.40
2023-02-01T02:02:35.706Z,1.30
2023-02-01T02:07:48.813Z,1.00
2023-02-01T02:12:57.121Z,1.30
2023-02-01T02:18:14.583Z,1.10
2023-02-01T02:24:04.014Z,1.10
2023-02-01T02:29:37.223Z,1.00
2023-02-01T02:34:50.967Z,0.90
2023-02-01T02:40:08.019Z,1.30
2023-02-01T02:45:43.757Z,0.80
2023-02-01T02:51:15.428Z,1.00
2023-02-01T02:56:44.030Z,0.90
2023-02-01T03:02:11.299Z,1.20
2023-02-01T03:07:57.351Z,0.90
2023-02-01T03:13:09.781Z,1.10
2023-02-01T03:18:25.307Z,1.40
2023-02-01T03:23:37.436Z,1.00
2023-02-01T03:28:51.209Z,1.40
2023-02-01T03:33:59.623Z,1.00
2023-02-01T03:39:12.005Z,1.10
2023-02-01T03:44:23.871Z,0.80
2023-02-01T03:49:36.625Z,1.20
2023-02-01T03:54:47.078Z,1.30
2023-02-01T03:59:55.640Z,1.10
2023-02-01T04:05:03.753Z,1.00
2023-02-01T04:10:13.901Z,1.10
2023-02-01T04:15:21.498Z,1.30
2023-02-01T04:20:29.284Z,2.00
2023-02-01T04:25:36.568Z,0.70
2023-02-01T04:30:44.921Z,0.90
2023-02-01T04:35:53.381Z,1.10
2023-02-01T04:41:01.092Z,0.80
2023-02-01T04:46:09.738Z,1.20
2023-02-01T04:51:19.475Z,1.00
2023-02-01T04:56:27.644Z,0.90
2023-02-01T05:01:35.338Z,1.10
2023-02-01T05:06:42.725Z,0.80
2023-02-01T05:12:08.419Z,1.00
2023-02-01T05:17:16.495Z,0.90
2023-02-01T05:22:24.982Z,0.70
2023-02-01T05:27:34.445Z,1.30
2023-02-01T05:32:42.535Z,1.50
2023-02-01T05:37:50.759Z,0.90
2023-02-01T05:42:58.790Z,1.20
2023-02-01T05:48:06.465Z,1.50
2023-02-01T05:53:15.391Z,1.30
2023-02-01T05:58:23.484Z,1.30
2023-02-01T06:03:32.333Z,1.20
2023-02-01T06:08:41.670Z,1.10
2023-02-01T06:13:50.239Z,1.00
2023-02-01T06:18:58.550Z,1.60
2023-02-01T06:24:06.323Z,1.10
2023-02-01T06:29:14.781Z,1.30
2023-02-01T06:34:23.748Z,1.70
2023-02-01T06:39:32.396Z,1.50
2023-02-01T06:44:40.279Z,1.70
2023-02-01T06:49:47.780Z,1.70
2023-02-01T06:54:55.312Z,1.90
2023-02-01T07:00:03.725Z,1.70
2023-02-01T07:05:13.051Z,1.70
2023-02-01T07:10:22.475Z,1.80
2023-02-01T07:15:32.225Z,1.80
2023-02-01T07:20:40.497Z,1.60
2023-02-01T07:25:48.940Z,2.30
2023-02-01T07:30:57.235Z,1.50
2023-02-01T07:36:07.356Z,1.30
2023-02-01T07:41:16.206Z,2.00
2023-02-01T07:46:24.903Z,1.20
2023-02-01T07:51:33.484Z,1.80
2023-02-01T07:56:41.774Z,1.10
2023-02-01T08:01:50.306Z,1.20
2023-02-01T08:06:58.914Z,1.40
2023-02-01T08:12:07.315Z,1.00
2023-02-01T08:17:16.006Z,1.20
2023-02-01T08:22:24.972Z,1.00
2023-02-01T08:27:35.266Z,1.70
2023-02-01T08:32:43.849Z,1.30
2023-02-01T08:37:52.235Z,1.60
2023-02-01T08:42:59.751Z,2.00
2023-02-01T08:48:11.161Z,1.20
2023-02-01T08:53:18.444Z,1.50
2023-02-01T08:58:25.887Z,1.60
2023-02-01T09:03:33.971Z,1.60
2023-02-01T09:08:43.148Z,1.80
2023-02-01T09:13:53.157Z,2.40
2023-02-01T09:19:24.468Z,2.20
2023-02-01T09:24:30.785Z,1.60
2023-02-01T09:29:39.033Z,1.10
2023-02-01T09:34:47.283Z,1.50
2023-02-01T09:39:55.418Z,2.20
2023-02-01T09:45:19.155Z,1.80
2023-02-01T09:50:37.081Z,1.80
2023-02-01T09:55:47.794Z,1.40
2023-02-01T10:00:58.467Z,2.20
2023-02-01T10:06:36.655Z,1.60
2023-02-01T10:11:58.687Z,1.40
2023-02-01T10:17:15.532Z,2.50
2023-02-01T10:22:58.938Z,1.70
2023-02-01T10:28:07.112Z,1.80
2023-02-01T10:33:21.270Z,2.20
2023-02-01T10:38:31.883Z,1.80
2023-02-01T10:43:40.718Z,2.10
2023-02-01T10:48:49.055Z,2.30
2023-02-01T10:54:00.084Z,2.20
2023-02-01T10:59:09.208Z,2.20
2023-02-01T11:04:18.921Z,2.40
2023-02-01T11:09:28.480Z,2.60
2023-02-01T11:14:43.303Z,2.00
2023-02-01T11:19:59.671Z,2.00
2023-02-01T11:25:17.418Z,1.90
2023-02-01T11:30:34.622Z,1.90
2023-02-01T11:35:44.832Z,2.10
2023-02-01T11:40:52.992Z,2.60
2023-02-01T11:46:03.424Z,1.90
2023-02-01T11:51:41.154Z,3.10
2023-02-01T11:56:57.834Z,2.20
2023-02-01T12:02:25.319Z,1.90
2023-02-01T12:07:50.802Z,2.70
2023-02-01T12:13:17.733Z,2.00
2023-02-01T12:18:50.327Z,1.90
2023-02-01T12:24:20.157Z,1.90
2023-02-01T12:29:49.998Z,2.00
2023-02-01T12:35:24.310Z,2.30
2023-02-01T12:40:54.339Z,2.40
2023-02-01T12:46:06.062Z,1.50
2023-02-01T12:51:18.720Z,2.20
2023-02-01T12:56:31.929Z,2.40
2023-02-01T13:01:47.642Z,2.30
2023-02-01T13:07:00.461Z,2.60
2023-02-01T13:12:14.331Z,2.20
2023-02-01T13:17:26.760Z,2.30
2023-02-01T13:22:40.071Z,2.70
2023-02-01T13:27:48.964Z,1.90
2023-02-01T13:33:54.879Z,2.60
2023-02-01T13:39:32.384Z,3.00
2023-02-01T13:44:46.086Z,2.20
2023-02-01T13:49:59.595Z,3.10
2023-02-01T13:55:28.346Z,2.70
2023-02-01T14:00:37.766Z,2.20
2023-02-01T14:06:05.234Z,2.30
2023-02-01T14:11:38.603Z,1.90
2023-02-01T14:16:47.067Z,1.90
2023-02-01T14:22:00.784Z,2.60
2023-02-01T14:27:24.255Z,2.40
2023-02-01T14:32:38.120Z,2.30
2023-02-01T14:37:46.949Z,2.60
2023-02-01T14:42:57.060Z,2.70
2023-02-01T14:48:40.374Z,2.60
2023-02-01T14:53:49.470Z,2.80
2023-02-01T14:59:05.684Z,2.70
2023-02-01T15:04:16.639Z,3.40
2023-02-01T15:09:28.661Z,3.60
2023-02-01T15:14:39.557Z,3.70
2023-02-01T15:19:58.579Z,3.20
2023-02-01T15:25:07.628Z,3.50
2023-02-01T15:30:23.140Z,3.40
2023-02-01T15:35:48.376Z,3.60
2023-02-01T15:41:05.366Z,3.50
2023-02-01T15:46:20.198Z,2.90
2023-02-01T15:51:30.911Z,3.80
2023-02-01T15:56:42.371Z,2.70
2023-02-01T16:01:52.834Z,2.80
2023-02-01T16:07:04.896Z,2.50
2023-02-01T16:12:33.246Z,2.50
2023-02-01T16:17:42.151Z,2.40
2023-02-01T16:22:50.979Z,2.30
2023-02-01T16:27:58.961Z,2.50
2023-02-01T16:33:08.281Z,2.20
2023-02-01T16:38:16.904Z,2.30
2023-02-01T16:43:27.135Z,1.90
2023-02-01T16:48:37.164Z,2.30
2023-02-01T16:53:54.341Z,2.20
2023-02-01T16:59:05.194Z,2.50
2023-02-01T17:04:13.123Z,2.00
2023-02-01T17:09:22.350Z,2.80
2023-02-01T17:14:29.976Z,2.40
2023-02-01T17:19:38.623Z,2.20
2023-02-01T17:24:48.737Z,2.20
2023-02-01T17:29:57.596Z,2.10
2023-02-01T17:35:05.839Z,2.50
2023-02-01T17:40:16.120Z,2.80
2023-02-01T17:45:37.130Z,3.10
2023-02-01T17:50:46.198Z,2.80
2023-02-01T17:55:54.946Z,3.50
2023-02-01T18:01:04.322Z,3.70
2023-02-01T18:06:15.777Z,3.00
2023-02-01T18:11:26.663Z,2.40
2023-02-01T18:16:37.773Z,2.50
2023-02-01T18:21:47.605Z,2.50
2023-02-01T18:26:55.225Z,3.30
2023-02-01T18:32:04.696Z,3.50
2023-02-01T18:37:12.478Z,3.00
2023-02-01T18:42:19.828Z,2.80
2023-02-01T18:47:27.881Z,2.20
2023-02-01T18:52:36.056Z,3.30
2023-02-01T18:57:45.695Z,2.30
2023-02-01T19:02:53.226Z,1.80
2023-02-01T19:08:01.632Z,1.80
2023-02-01T19:13:13.756Z,1.50
2023-02-01T19:18:22.664Z,1.90
2023-02-01T19:23:31.257Z,2.40
2023-02-01T19:28:40.559Z,2.20
2023-02-01T19:33:49.811Z,3.20
2023-02-01T19:38:58.853Z,3.60
2023-02-01T19:44:07.537Z,3.70
2023-02-01T19:49:16.789Z,3.10
2023-02-01T19:54:24.219Z,3.20
2023-02-01T19:59:32.829Z,3.20
2023-02-01T20:04:40.710Z,3.30
2023-02-01T20:09:49.764Z,2.80
2023-02-01T20:14:58.617Z,3.20
2023-02-01T20:20:07.722Z,3.10
2023-02-01T20:25:16.681Z,2.20
2023-02-01T20:30:26.910Z,2.30
2023-02-01T20:35:35.118Z,2.30
2023-02-01T20:40:43.386Z,2.20
2023-02-01T20:45:54.053Z,2.90
2023-02-01T20:51:02.610Z,3.00
2023-02-01T20:56:12.685Z,2.30
2023-02-01T21:01:21.212Z,2.60
2023-02-01T21:06:29.718Z,2.80
2023-02-01T21:11:37.709Z,2.80
2023-02-01T21:16:45.654Z,3.20
2023-02-01T21:21:53.723Z,3.30
2023-02-01T21:27:01.488Z,3.20
2023-02-01T21:32:10.846Z,3.60
2023-02-01T21:37:19.817Z,3.60
2023-02-01T21:42:29.013Z,4.10
2023-02-01T21:47:39.154Z,3.30
2023-02-01T21:52:49.335Z,3.50
2023-02-01T21:57:58.205Z,3.60
2023-02-01T22:03:07.185Z,3.70
2023-02-01T22:08:17.634Z,3.80
2023-02-01T22:13:26.080Z,4.10
2023-02-01T22:18:34.393Z,5.10
2023-02-01T22:23:42.681Z,5.30
2023-02-01T22:28:51.729Z,4.60
2023-02-01T22:34:00.137Z,5.40
2023-02-01T22:39:08.821Z,5.20
2023-02-01T22:44:17.117Z,4.60
2023-02-01T22:49:25.790Z,4.20
2023-02-01T22:54:34.539Z,5.20
2023-02-01T22:59:41.936Z,4.80
2023-02-01T23:04:50.621Z,4.40
2023-02-01T23:09:58.214Z,4.60
2023-02-01T23:15:10.181Z,5.10
2023-02-01T23:20:20.493Z,5.40
2023-02-01T23:25:27.955Z,4.20
2023-02-01T23:30:35.322Z,4.80
2023-02-01T23:35:43.631Z,3.70
2023-02-01T23:40:54.393Z,3.90
2023-02-01T23:46:03.419Z,4.20
2023-02-01T23:51:12.845Z,3.20
2023-02-01T23:56:29.178Z,3.50
